Terminal Aerodrome Forecast
Issued by NWS

Home | Current Version | Previous Version | Text Only | Print | Product List | Glossary On
Versions: 1 2 3 4 5 6 7 8 9 10 11 12 13
000
FTAK31 PAJN 051140
TAFAJN
TAF
PAJN 051140Z 0512/0612 09010KT 6SM -RA SCT025 OVC035
     FM051400 10012KT P6SM -RA BKN025 OVC035
     FM052100 10010KT P6SM -RA SCT025 OVC040
     FM060300 11010G20KT P6SM -RA SCT020 OVC035
     FM060900 11015G25KT P6SM -RA SCT020 OVC040 WS020/18035KT=

USA.gov is the U.S. government's official web portal to all federal, state and local government web resources and services.